DLH85P LEBL-EDDM
Flight info
| Callsign | DLH85P |
|---|---|
| Flight time | 1h 31m |
| Altitude | 30000 |
| Route | DALIN DCT PIVUS DCT DIBER/N0445F360 DCT ADITA DCT MAXIR DCT LUSOL DCT BODRU DCT OKTET DCT IRMAR DCT KINES DCT VANAS DCT MOBLO DCT LAMUR DCT KORED/N0445F370 DCT NUNRI T103 BETOS BETOS1A |
| Aircraft | A320/M-SDE3FGHIRWY/LB1 |
Departure
| Time | 2026-05-04 11:08 |
|---|---|
| Airport | Josep Tarradellas Barcelona-El Prat Airport (LEBL) |
Arrival
| Time | 2026-05-04 12:39 |
|---|---|
| Airport | Munich Airport (EDDM) |
| Time | Latitude | Longitude | Altitude | Speed | Heading |
|---|---|---|---|---|---|
| 2026-05-04 10:47 | 41.28640 | 2.07521 | 18 ft | 0 kts | 8° |
| 2026-05-04 10:50 | 41.28640 | 2.07520 | 18 ft | 0 kts | 8° |
| 2026-05-04 10:57 | 41.28602 | 2.07430 | 20 ft | 0 kts | 337° |
| 2026-05-04 10:59 | 41.28599 | 2.07432 | 18 ft | 3 kts | 338° |
| 2026-05-04 10:59 | 41.28575 | 2.07440 | 18 ft | 4 kts | 14° |
| 2026-05-04 11:00 | 41.28561 | 2.07435 | 18 ft | 4 kts | 112° |
| 2026-05-04 11:01 | 41.28566 | 2.07426 | 19 ft | 0 kts | 136° |
| 2026-05-04 11:05 | 41.29075 | 2.09592 | 17 ft | 0 kts | 217° |
| 2026-05-04 11:06 | 41.29061 | 2.09579 | 19 ft | 11 kts | 215° |
| 2026-05-04 11:06 | 41.28948 | 2.09466 | 15 ft | 24 kts | 218° |
| 2026-05-04 11:06 | 41.28899 | 2.09385 | 14 ft | 0 kts | 244° |
| 2026-05-04 11:08 | 41.27477 | 2.05996 | 838 ft | 153 kts | 207° |
| 2026-05-04 11:10 | 41.17847 | 2.05718 | 5015 ft | 222 kts | 184° |
| 2026-05-04 11:12 | 41.07425 | 2.09889 | 9881 ft | 298 kts | 95° |
| 2026-05-04 11:12 | 41.07834 | 2.12627 | 10430 ft | 317 kts | 68° |
| 2026-05-04 11:12 | 41.08938 | 2.15279 | 10656 ft | 342 kts | 58° |
| 2026-05-04 11:12 | 41.10369 | 2.17927 | 10851 ft | 365 kts | 53° |
| 2026-05-04 11:13 | 41.11973 | 2.20614 | 11305 ft | 376 kts | 52° |
| 2026-05-04 11:13 | 41.13627 | 2.23346 | 11924 ft | 382 kts | 52° |
| 2026-05-04 11:13 | 41.15275 | 2.26146 | 12596 ft | 387 kts | 53° |
| 2026-05-04 11:13 | 41.16899 | 2.29021 | 13248 ft | 392 kts | 54° |
| 2026-05-04 11:14 | 41.18510 | 2.31971 | 13887 ft | 397 kts | 55° |
| 2026-05-04 11:14 | 41.20117 | 2.34979 | 14455 ft | 401 kts | 55° |
| 2026-05-04 11:14 | 41.21729 | 2.38026 | 15052 ft | 405 kts | 55° |
| 2026-05-04 11:16 | 41.33507 | 2.60088 | 18854 ft | 432 kts | 54° |
| 2026-05-04 11:16 | 41.35255 | 2.63366 | 19284 ft | 437 kts | 54° |
| 2026-05-04 11:16 | 41.37021 | 2.66682 | 19741 ft | 441 kts | 54° |
| 2026-05-04 11:17 | 41.38796 | 2.70022 | 20188 ft | 444 kts | 54° |
| 2026-05-04 11:17 | 41.40586 | 2.73393 | 20621 ft | 448 kts | 54° |
| 2026-05-04 11:19 | 41.53543 | 2.97901 | 23460 ft | 476 kts | 55° |
| 2026-05-04 11:19 | 41.55451 | 3.01526 | 23802 ft | 479 kts | 55° |
| 2026-05-04 11:19 | 41.57373 | 3.05182 | 24115 ft | 482 kts | 55° |
| 2026-05-04 11:19 | 41.59303 | 3.08852 | 24461 ft | 484 kts | 55° |
| 2026-05-04 11:20 | 41.61243 | 3.12544 | 24790 ft | 486 kts | 55° |
| 2026-05-04 11:20 | 41.63190 | 3.16254 | 25119 ft | 489 kts | 55° |
| 2026-05-04 11:20 | 41.65138 | 3.19970 | 25429 ft | 492 kts | 55° |
| 2026-05-04 11:20 | 41.67103 | 3.23727 | 25760 ft | 494 kts | 55° |
| 2026-05-04 11:22 | 41.78858 | 3.52305 | 27796 ft | 512 kts | 68° |
| 2026-05-04 11:22 | 41.80307 | 3.56675 | 28068 ft | 515 kts | 68° |
| 2026-05-04 11:23 | 41.81769 | 3.61072 | 28330 ft | 517 kts | 68° |
| 2026-05-04 11:23 | 41.83236 | 3.65485 | 28594 ft | 520 kts | 68° |
| 2026-05-04 11:24 | 41.92013 | 3.92172 | 29981 ft | 518 kts | 68° |
| 2026-05-04 11:25 | 41.93462 | 3.96598 | 29967 ft | 518 kts | 68° |
| 2026-05-04 11:25 | 41.96355 | 4.05459 | 29985 ft | 518 kts | 68° |
| 2026-05-04 11:27 | 42.10526 | 4.44378 | 30000 ft | 515 kts | 45° |
| 2026-05-04 11:28 | 42.15790 | 4.50880 | 29998 ft | 513 kts | 39° |
| 2026-05-04 11:28 | 42.21128 | 4.57283 | 29991 ft | 514 kts | 40° |
| 2026-05-04 11:29 | 42.26449 | 4.63718 | 29999 ft | 513 kts | 40° |
| 2026-05-04 11:29 | 42.31747 | 4.70144 | 30022 ft | 512 kts | 40° |
| 2026-05-04 11:33 | 42.68630 | 5.15223 | 30032 ft | 507 kts | 40° |
| 2026-05-04 11:33 | 42.73821 | 5.21620 | 30029 ft | 507 kts | 40° |
| 2026-05-04 11:34 | 42.79038 | 5.28073 | 30025 ft | 507 kts | 40° |
| 2026-05-04 11:34 | 42.84257 | 5.34539 | 30018 ft | 507 kts | 40° |
| 2026-05-04 11:35 | 42.89464 | 5.41006 | 30052 ft | 505 kts | 40° |
| 2026-05-04 11:35 | 42.94649 | 5.47463 | 30049 ft | 504 kts | 40° |
| 2026-05-04 11:36 | 42.99816 | 5.53929 | 30046 ft | 504 kts | 40° |
| 2026-05-04 11:36 | 43.04986 | 5.60395 | 30039 ft | 504 kts | 40° |
| 2026-05-04 11:37 | 43.10154 | 5.66868 | 30060 ft | 504 kts | 41° |
| 2026-05-04 11:37 | 43.15317 | 5.73352 | 30040 ft | 504 kts | 41° |
| 2026-05-04 11:38 | 43.20467 | 5.79843 | 30067 ft | 503 kts | 41° |
| 2026-05-04 11:38 | 43.25602 | 5.86337 | 30068 ft | 502 kts | 41° |
| 2026-05-04 11:39 | 43.30689 | 5.92787 | 30069 ft | 501 kts | 41° |
| 2026-05-04 11:40 | 43.48712 | 6.04962 | 30063 ft | 482 kts | 359° |
| 2026-05-04 11:41 | 43.52054 | 6.05300 | 30055 ft | 482 kts | 359° |
| 2026-05-04 11:41 | 43.58757 | 6.05987 | 30045 ft | 483 kts | 359° |
| 2026-05-04 11:42 | 43.65455 | 6.06665 | 30045 ft | 483 kts | 359° |
| 2026-05-04 11:42 | 43.72160 | 6.07340 | 30061 ft | 483 kts | 360° |
| 2026-05-04 11:43 | 43.78778 | 6.09179 | 30043 ft | 491 kts | 17° |
| 2026-05-04 11:43 | 43.83989 | 6.12503 | 30060 ft | 493 kts | 23° |
| 2026-05-04 11:44 | 43.90145 | 6.16698 | 30084 ft | 493 kts | 24° |
| 2026-05-04 11:44 | 43.96285 | 6.20877 | 30082 ft | 491 kts | 24° |
| 2026-05-04 11:45 | 44.02366 | 6.25040 | 30085 ft | 491 kts | 24° |
| 2026-05-04 11:45 | 44.08483 | 6.29239 | 30107 ft | 490 kts | 24° |
| 2026-05-04 11:46 | 44.14594 | 6.33443 | 30094 ft | 490 kts | 24° |
| 2026-05-04 11:46 | 44.20705 | 6.37659 | 30101 ft | 490 kts | 24° |
| 2026-05-04 11:47 | 44.26811 | 6.41881 | 30121 ft | 489 kts | 25° |
| 2026-05-04 11:47 | 44.32895 | 6.46095 | 30126 ft | 488 kts | 25° |
| 2026-05-04 11:48 | 44.38969 | 6.50304 | 30105 ft | 487 kts | 24° |
| 2026-05-04 11:48 | 44.45033 | 6.54518 | 30144 ft | 486 kts | 25° |
| 2026-05-04 11:49 | 44.51080 | 6.58744 | 30150 ft | 485 kts | 25° |
| 2026-05-04 11:49 | 44.57115 | 6.62966 | 30151 ft | 484 kts | 25° |
| 2026-05-04 11:50 | 44.63143 | 6.67181 | 30145 ft | 484 kts | 25° |
| 2026-05-04 11:50 | 44.69170 | 6.71411 | 30158 ft | 484 kts | 25° |
| 2026-05-04 11:51 | 44.75155 | 6.75598 | 30150 ft | 483 kts | 24° |
| 2026-05-04 11:51 | 44.81545 | 6.78329 | 30164 ft | 479 kts | 6° |
| 2026-05-04 11:52 | 44.88158 | 6.78511 | 30165 ft | 475 kts | 355° |
| 2026-05-04 11:52 | 44.94754 | 6.78070 | 30159 ft | 475 kts | 355° |
| 2026-05-04 11:53 | 45.01356 | 6.77642 | 30166 ft | 475 kts | 355° |
| 2026-05-04 11:53 | 45.07952 | 6.77202 | 30166 ft | 475 kts | 355° |
| 2026-05-04 11:55 | 45.34417 | 6.75446 | 30114 ft | 477 kts | 356° |
| 2026-05-04 11:56 | 45.41049 | 6.74996 | 30117 ft | 478 kts | 356° |
| 2026-05-04 11:56 | 45.47693 | 6.74557 | 30108 ft | 479 kts | 356° |
| 2026-05-04 11:57 | 45.54354 | 6.74104 | 30098 ft | 479 kts | 356° |
| 2026-05-04 11:57 | 45.61014 | 6.73645 | 30099 ft | 480 kts | 355° |
| 2026-05-04 11:58 | 45.67699 | 6.73178 | 30061 ft | 482 kts | 356° |
| 2026-05-04 11:58 | 45.74396 | 6.72713 | 30058 ft | 482 kts | 355° |
| 2026-05-04 11:59 | 45.81094 | 6.73251 | 30071 ft | 485 kts | 11° |
| 2026-05-04 11:59 | 45.87438 | 6.76468 | 30059 ft | 485 kts | 25° |
| 2026-05-04 12:00 | 45.93572 | 6.80496 | 30062 ft | 485 kts | 25° |
| 2026-05-04 12:00 | 45.99717 | 6.84508 | 30042 ft | 485 kts | 25° |
| 2026-05-04 12:01 | 46.05868 | 6.88535 | 30040 ft | 486 kts | 25° |
| 2026-05-04 12:02 | 46.27447 | 7.02766 | 29997 ft | 490 kts | 25° |
| 2026-05-04 12:03 | 46.33641 | 7.06891 | 30004 ft | 490 kts | 25° |
| 2026-05-04 12:03 | 46.39843 | 7.11023 | 30003 ft | 491 kts | 25° |
| 2026-05-04 12:04 | 46.46053 | 7.15158 | 29987 ft | 491 kts | 25° |
| 2026-05-04 12:04 | 46.52223 | 7.19276 | 29995 ft | 491 kts | 25° |
| 2026-05-04 12:05 | 46.58427 | 7.23430 | 29999 ft | 491 kts | 25° |
| 2026-05-04 12:05 | 46.64631 | 7.27601 | 29991 ft | 491 kts | 25° |
| 2026-05-04 12:06 | 46.70834 | 7.31782 | 29991 ft | 491 kts | 25° |
| 2026-05-04 12:06 | 46.77031 | 7.35970 | 29990 ft | 490 kts | 25° |
| 2026-05-04 12:07 | 46.82838 | 7.41107 | 29994 ft | 489 kts | 41° |
| 2026-05-04 12:07 | 46.87316 | 7.48473 | 29994 ft | 484 kts | 59° |
| 2026-05-04 12:08 | 46.90452 | 7.57130 | 29977 ft | 482 kts | 66° |
| 2026-05-04 12:08 | 46.93438 | 7.65901 | 29973 ft | 482 kts | 66° |
| 2026-05-04 12:09 | 46.96420 | 7.74692 | 29967 ft | 482 kts | 66° |
| 2026-05-04 12:09 | 46.99396 | 7.83496 | 29972 ft | 483 kts | 66° |
| 2026-05-04 12:10 | 47.02366 | 7.92311 | 29972 ft | 482 kts | 66° |
| 2026-05-04 12:10 | 47.05334 | 8.01136 | 29981 ft | 483 kts | 66° |
| 2026-05-04 12:11 | 47.08301 | 8.09978 | 29994 ft | 483 kts | 66° |
| 2026-05-04 12:11 | 47.11252 | 8.18839 | 29982 ft | 483 kts | 66° |
| 2026-05-04 12:12 | 47.14198 | 8.27710 | 29981 ft | 483 kts | 66° |
| 2026-05-04 12:12 | 47.17147 | 8.36585 | 29994 ft | 483 kts | 66° |
| 2026-05-04 12:14 | 47.28833 | 8.72136 | 30007 ft | 484 kts | 66° |
| 2026-05-04 12:15 | 47.31734 | 8.81063 | 30004 ft | 483 kts | 66° |
| 2026-05-04 12:15 | 47.34634 | 8.89979 | 30003 ft | 482 kts | 66° |
| 2026-05-04 12:16 | 47.37522 | 8.98889 | 30005 ft | 481 kts | 66° |
| 2026-05-04 12:16 | 47.40396 | 9.07808 | 29998 ft | 481 kts | 66° |
| 2026-05-04 12:17 | 47.43264 | 9.16729 | 29993 ft | 481 kts | 66° |
| 2026-05-04 12:17 | 47.46125 | 9.25663 | 29983 ft | 481 kts | 66° |
| 2026-05-04 12:18 | 47.48973 | 9.34593 | 29989 ft | 480 kts | 66° |
| 2026-05-04 12:18 | 47.51815 | 9.43518 | 30006 ft | 480 kts | 66° |
| 2026-05-04 12:19 | 47.54648 | 9.52457 | 30003 ft | 479 kts | 66° |
| 2026-05-04 12:19 | 47.57302 | 9.61488 | 30000 ft | 478 kts | 74° |
| 2026-05-04 12:20 | 47.58370 | 9.71114 | 29988 ft | 472 kts | 92° |
| 2026-05-04 12:20 | 47.58045 | 9.80788 | 29989 ft | 470 kts | 96° |
| 2026-05-04 12:21 | 47.57657 | 9.90445 | 29988 ft | 470 kts | 96° |
| 2026-05-04 12:21 | 47.57265 | 10.00100 | 29983 ft | 469 kts | 96° |
| 2026-05-04 12:22 | 47.56857 | 10.09753 | 29794 ft | 470 kts | 96° |
| 2026-05-04 12:22 | 47.56650 | 10.14578 | 29230 ft | 469 kts | 96° |
| 2026-05-04 12:22 | 47.56440 | 10.19377 | 28469 ft | 464 kts | 96° |
| 2026-05-04 12:23 | 47.56228 | 10.24133 | 27708 ft | 462 kts | 96° |
| 2026-05-04 12:23 | 47.56016 | 10.28868 | 26939 ft | 460 kts | 96° |
| 2026-05-04 12:23 | 47.55804 | 10.33586 | 26200 ft | 458 kts | 96° |
| 2026-05-04 12:23 | 47.55594 | 10.38279 | 25464 ft | 456 kts | 96° |
| 2026-05-04 12:24 | 47.55381 | 10.42954 | 24738 ft | 454 kts | 96° |
| 2026-05-04 12:24 | 47.55179 | 10.47547 | 24024 ft | 453 kts | 94° |
| 2026-05-04 12:24 | 47.55309 | 10.52203 | 23253 ft | 454 kts | 84° |
| 2026-05-04 12:24 | 47.55986 | 10.56816 | 22545 ft | 451 kts | 74° |
| 2026-05-04 12:25 | 47.57133 | 10.61055 | 21877 ft | 449 kts | 64° |
| 2026-05-04 12:25 | 47.58681 | 10.65042 | 21235 ft | 445 kts | 60° |
| 2026-05-04 12:25 | 47.60265 | 10.68960 | 20602 ft | 441 kts | 60° |
| 2026-05-04 12:25 | 47.61826 | 10.72846 | 19991 ft | 437 kts | 60° |
| 2026-05-04 12:26 | 47.63366 | 10.76700 | 19413 ft | 432 kts | 61° |
| 2026-05-04 12:26 | 47.64890 | 10.80519 | 18829 ft | 428 kts | 61° |
| 2026-05-04 12:26 | 47.66398 | 10.84300 | 18295 ft | 424 kts | 61° |
| 2026-05-04 12:26 | 47.68019 | 10.87923 | 17722 ft | 420 kts | 53° |
| 2026-05-04 12:27 | 47.69999 | 10.91079 | 17209 ft | 416 kts | 43° |
| 2026-05-04 12:27 | 47.72226 | 10.93779 | 16698 ft | 411 kts | 39° |
| 2026-05-04 12:27 | 47.74453 | 10.96406 | 16174 ft | 407 kts | 39° |
| 2026-05-04 12:27 | 47.76662 | 10.99019 | 15654 ft | 404 kts | 39° |
| 2026-05-04 12:28 | 47.78848 | 11.01619 | 15098 ft | 402 kts | 39° |
| 2026-05-04 12:28 | 47.81023 | 11.04208 | 14557 ft | 399 kts | 39° |
| 2026-05-04 12:28 | 47.83183 | 11.06788 | 14028 ft | 397 kts | 39° |
| 2026-05-04 12:28 | 47.85336 | 11.09362 | 13405 ft | 396 kts | 39° |
| 2026-05-04 12:29 | 47.87479 | 11.11921 | 12824 ft | 393 kts | 39° |
| 2026-05-04 12:29 | 47.89610 | 11.14455 | 12222 ft | 391 kts | 39° |
| 2026-05-04 12:29 | 47.91728 | 11.16974 | 11614 ft | 389 kts | 39° |
| 2026-05-04 12:29 | 47.93837 | 11.19484 | 11015 ft | 387 kts | 39° |
| 2026-05-04 12:30 | 47.95909 | 11.21955 | 10756 ft | 374 kts | 39° |
| 2026-05-04 12:30 | 47.97236 | 11.23537 | 10672 ft | 364 kts | 39° |
| 2026-05-04 12:30 | 47.99174 | 11.25848 | 10561 ft | 350 kts | 39° |
| 2026-05-04 12:30 | 48.01036 | 11.28074 | 10439 ft | 337 kts | 39° |
| 2026-05-04 12:31 | 48.02816 | 11.30207 | 10258 ft | 318 kts | 39° |
| 2026-05-04 12:31 | 48.04515 | 11.32241 | 9788 ft | 309 kts | 39° |
| 2026-05-04 12:31 | 48.06203 | 11.34197 | 9585 ft | 305 kts | 34° |
| 2026-05-04 12:31 | 48.08083 | 11.35651 | 9463 ft | 304 kts | 20° |
| 2026-05-04 12:32 | 48.10096 | 11.36701 | 8989 ft | 310 kts | 19° |
| 2026-05-04 12:32 | 48.14102 | 11.38784 | 8248 ft | 300 kts | 19° |
| 2026-05-04 12:32 | 48.16062 | 11.39808 | 7605 ft | 297 kts | 19° |
| 2026-05-04 12:33 | 48.17954 | 11.40799 | 7397 ft | 278 kts | 19° |
| 2026-05-04 12:33 | 48.19721 | 11.41727 | 7196 ft | 262 kts | 19° |
| 2026-05-04 12:33 | 48.21420 | 11.42619 | 6738 ft | 259 kts | 19° |
| 2026-05-04 12:33 | 48.23141 | 11.43521 | 6118 ft | 263 kts | 19° |
| 2026-05-04 12:34 | 48.24857 | 11.44419 | 5598 ft | 260 kts | 20° |
| 2026-05-04 12:34 | 48.26520 | 11.45292 | 5365 ft | 245 kts | 20° |
| 2026-05-04 12:34 | 48.28111 | 11.46128 | 5274 ft | 241 kts | 20° |
| 2026-05-04 12:34 | 48.29688 | 11.46994 | 5119 ft | 242 kts | 27° |
| 2026-05-04 12:35 | 48.31039 | 11.48446 | 4890 ft | 238 kts | 48° |
| 2026-05-04 12:35 | 48.31941 | 11.50477 | 4661 ft | 230 kts | 68° |
| 2026-05-04 12:35 | 48.32306 | 11.52722 | 4395 ft | 220 kts | 83° |
| 2026-05-04 12:35 | 48.32479 | 11.54937 | 4129 ft | 206 kts | 82° |
| 2026-05-04 12:36 | 48.32644 | 11.57009 | 3880 ft | 196 kts | 82° |
| 2026-05-04 12:36 | 48.32798 | 11.58955 | 3635 ft | 179 kts | 82° |
| 2026-05-04 12:36 | 48.32937 | 11.60720 | 3405 ft | 161 kts | 82° |
| 2026-05-04 12:36 | 48.33063 | 11.62321 | 3202 ft | 148 kts | 82° |
| 2026-05-04 12:37 | 48.33181 | 11.63807 | 3008 ft | 143 kts | 82° |
| 2026-05-04 12:37 | 48.33297 | 11.65269 | 2833 ft | 139 kts | 81° |
| 2026-05-04 12:37 | 48.33411 | 11.66718 | 2636 ft | 138 kts | 82° |
| 2026-05-04 12:37 | 48.33524 | 11.68164 | 2452 ft | 139 kts | 84° |
| 2026-05-04 12:38 | 48.33637 | 11.69606 | 2285 ft | 139 kts | 82° |
| 2026-05-04 12:38 | 48.33749 | 11.71035 | 2087 ft | 137 kts | 82° |
| 2026-05-04 12:38 | 48.33860 | 11.72457 | 1895 ft | 137 kts | 83° |
| 2026-05-04 12:38 | 48.33969 | 11.73884 | 1700 ft | 138 kts | 82° |
| 2026-05-04 12:39 | 48.34088 | 11.75300 | 1525 ft | 136 kts | 83° |
| 2026-05-04 12:39 | 48.34185 | 11.76589 | 1485 ft | 108 kts | 83° |
| 2026-05-04 12:39 | 48.34252 | 11.77453 | 1477 ft | 58 kts | 84° |
| 2026-05-04 12:39 | 48.34281 | 11.77872 | 1480 ft | 33 kts | 83° |
| 2026-05-04 12:40 | 48.34320 | 11.78193 | 1485 ft | 29 kts | 69° |
| 2026-05-04 12:40 | 48.34415 | 11.78429 | 1485 ft | 26 kts | 53° |
| 2026-05-04 12:40 | 48.34444 | 11.78487 | 1480 ft | 0 kts | 53° |
| 2026-05-04 12:42 | 48.34468 | 11.78534 | 1479 ft | 19 kts | 53° |
| 2026-05-04 12:42 | 48.34586 | 11.78733 | 1477 ft | 26 kts | 22° |
| 2026-05-04 12:42 | 48.34725 | 11.78755 | 1473 ft | 15 kts | 51° |
| 2026-05-04 12:42 | 48.34743 | 11.78934 | 1485 ft | 22 kts | 83° |
| 2026-05-04 12:43 | 48.34762 | 11.79181 | 1485 ft | 23 kts | 83° |
| 2026-05-04 12:43 | 48.34781 | 11.79429 | 1485 ft | 24 kts | 83° |
| 2026-05-04 12:43 | 48.34809 | 11.79672 | 1478 ft | 21 kts | 52° |
| 2026-05-04 12:43 | 48.34950 | 11.79678 | 1480 ft | 22 kts | 353° |
| 2026-05-04 12:44 | 48.35092 | 11.79692 | 1478 ft | 20 kts | 49° |
| 2026-05-04 12:44 | 48.35115 | 11.79893 | 1481 ft | 21 kts | 83° |
| 2026-05-04 12:44 | 48.35132 | 11.80114 | 1483 ft | 22 kts | 83° |
| 2026-05-04 12:44 | 48.35203 | 11.80186 | 1481 ft | 12 kts | 353° |
| 2026-05-04 12:45 | 48.35286 | 11.80173 | 1483 ft | 12 kts | 354° |
| 2026-05-04 12:45 | 48.35367 | 11.80159 | 1479 ft | 11 kts | 351° |
| 2026-05-04 12:45 | 48.35426 | 11.80123 | 1479 ft | 8 kts | 290° |
| 2026-05-04 12:45 | 48.35425 | 11.80054 | 1477 ft | 5 kts | 263° |
| 2026-05-04 12:46 | 48.35423 | 11.80029 | 1480 ft | 1 kts | 263° |
| 2026-05-04 12:46 | 48.35423 | 11.80025 | 1481 ft | 1 kts | 263° |
| 2026-05-04 12:46 | 48.35423 | 11.80023 | 1481 ft | 0 kts | 263° |